createdAt,value
2022-09-14T00:01:58.251Z,89.40
2022-09-14T00:04:26.478Z,89.40
2022-09-14T00:06:54.462Z,89.50
2022-09-14T00:09:26.042Z,89.40
2022-09-14T00:11:54.732Z,89.50
2022-09-14T00:14:23.572Z,89.50
2022-09-14T00:16:52.229Z,89.20
2022-09-14T00:19:22.002Z,89.10
2022-09-14T00:21:53.095Z,89.00
2022-09-14T00:24:23.681Z,89.20
2022-09-14T00:26:52.295Z,89.30
2022-09-14T00:29:20.746Z,89.30
2022-09-14T00:31:48.917Z,89.10
2022-09-14T00:34:18.742Z,89.30
2022-09-14T00:36:48.562Z,89.10
2022-09-14T00:39:21.045Z,89.50
2022-09-14T00:41:52.662Z,89.40
2022-09-14T00:44:58.232Z,89.30
2022-09-14T00:47:26.821Z,89.40
2022-09-14T00:49:55.354Z,89.50
2022-09-14T00:52:26.142Z,89.90
2022-09-14T00:54:56.489Z,90.10
2022-09-14T00:57:28.384Z,90.50
2022-09-14T00:59:59.374Z,90.40
2022-09-14T01:02:29.150Z,90.70
2022-09-14T01:04:57.526Z,90.70
2022-09-14T01:07:57.418Z,90.60
2022-09-14T01:10:37.959Z,90.70
2022-09-14T01:13:18.626Z,90.70
2022-09-14T01:15:54.681Z,90.70
2022-09-14T01:18:28.636Z,90.80
2022-09-14T01:21:03.027Z,91.00
2022-09-14T01:23:41.311Z,90.90
2022-09-14T01:26:34.918Z,91.00
2022-09-14T01:29:13.429Z,91.00
2022-09-14T01:31:50.391Z,91.10
2022-09-14T01:34:25.896Z,91.20
2022-09-14T01:37:00.424Z,91.90
2022-09-14T01:39:32.280Z,92.00
2022-09-14T01:42:02.157Z,91.30
2022-09-14T01:44:35.211Z,91.50
2022-09-14T01:47:10.171Z,91.40
2022-09-14T01:49:42.527Z,91.60
2022-09-14T01:52:15.253Z,92.10
2022-09-14T01:54:46.900Z,92.90
2022-09-14T01:57:22.687Z,92.70
2022-09-14T01:59:56.050Z,92.90
2022-09-14T02:02:29.853Z,93.40
2022-09-14T02:05:10.004Z,94.10
2022-09-14T02:07:39.241Z,94.50
2022-09-14T02:10:11.726Z,95.20
2022-09-14T02:12:41.276Z,95.00
2022-09-14T02:15:13.295Z,95.30
2022-09-14T02:17:41.856Z,95.80
2022-09-14T02:20:15.133Z,95.60
2022-09-14T02:22:43.239Z,95.60
2022-09-14T02:25:11.810Z,95.60
2022-09-14T02:27:39.797Z,95.80
2022-09-14T02:30:11.134Z,95.60
2022-09-14T02:32:48.840Z,95.80
2022-09-14T02:35:23.715Z,95.60
2022-09-14T02:37:59.005Z,95.50
2022-09-14T02:40:33.947Z,95.40
2022-09-14T02:43:11.844Z,95.30
2022-09-14T02:45:48.695Z,95.70
2022-09-14T02:48:27.591Z,95.90
2022-09-14T02:51:04.234Z,95.70
2022-09-14T02:53:38.130Z,96.10
2022-09-14T02:56:10.993Z,96.70
2022-09-14T02:58:42.217Z,96.80
2022-09-14T03:01:17.365Z,96.40
2022-09-14T03:03:45.760Z,96.70
2022-09-14T03:06:13.963Z,96.70
2022-09-14T03:08:42.427Z,96.50
2022-09-14T03:11:10.822Z,96.70
2022-09-14T03:13:39.381Z,97.20
2022-09-14T03:16:08.992Z,97.10
2022-09-14T03:18:39.001Z,97.20
2022-09-14T03:21:09.020Z,97.20
2022-09-14T03:23:38.039Z,96.90
2022-09-14T03:26:09.500Z,96.70
2022-09-14T03:28:37.640Z,97.20
2022-09-14T03:31:07.186Z,97.40
2022-09-14T03:33:35.570Z,97.60
2022-09-14T03:36:13.526Z,98.20
2022-09-14T03:38:44.854Z,98.40
2022-09-14T03:41:14.490Z,99.00
2022-09-14T03:43:43.693Z,99.90
2022-09-14T03:46:14.309Z,99.90
2022-09-14T03:48:43.010Z,99.90
2022-09-14T03:51:14.303Z,99.90
2022-09-14T03:53:43.606Z,99.90
2022-09-14T03:56:15.282Z,99.90
2022-09-14T03:58:43.338Z,99.90
2022-09-14T04:01:14.456Z,99.90
2022-09-14T04:03:43.376Z,99.90
2022-09-14T04:06:13.000Z,99.90
2022-09-14T04:08:42.339Z,99.90
2022-09-14T04:11:12.094Z,99.90
2022-09-14T04:13:41.800Z,99.90
2022-09-14T04:16:10.359Z,99.90
2022-09-14T04:18:38.421Z,99.90
2022-09-14T04:21:11.238Z,99.90
2022-09-14T04:24:03.333Z,99.90
2022-09-14T04:26:32.414Z,99.90
2022-09-14T04:29:00.907Z,99.90
2022-09-14T04:31:29.016Z,99.90
2022-09-14T04:33:57.490Z,99.90
2022-09-14T04:36:28.586Z,99.90
2022-09-14T04:39:00.941Z,99.90
2022-09-14T04:41:31.220Z,99.90
2022-09-14T04:44:01.091Z,99.90
2022-09-14T04:46:31.148Z,99.90
2022-09-14T04:49:00.322Z,99.90
2022-09-14T04:51:31.082Z,99.90
2022-09-14T04:54:04.748Z,99.90
2022-09-14T04:56:34.688Z,99.90
2022-09-14T04:59:05.672Z,99.90
2022-09-14T05:01:38.362Z,99.90
2022-09-14T05:04:08.548Z,99.90
2022-09-14T05:06:39.118Z,99.90
2022-09-14T05:09:13.092Z,99.90
2022-09-14T05:11:44.023Z,99.90
2022-09-14T05:14:13.934Z,99.90
2022-09-14T05:16:43.728Z,99.90
2022-09-14T05:19:14.462Z,99.90
2022-09-14T05:21:42.673Z,99.90
2022-09-14T05:24:14.990Z,99.90
2022-09-14T05:26:44.088Z,99.90
2022-09-14T05:29:14.132Z,99.90
2022-09-14T05:31:42.537Z,99.90
2022-09-14T05:34:18.327Z,99.90
2022-09-14T05:36:47.522Z,99.90
2022-09-14T05:39:21.023Z,99.90
2022-09-14T05:41:51.373Z,99.90
2022-09-14T05:44:19.865Z,99.90
2022-09-14T05:46:47.913Z,99.90
2022-09-14T05:49:19.204Z,99.90
2022-09-14T05:51:47.307Z,99.90
2022-09-14T05:54:19.287Z,99.90
2022-09-14T05:56:49.807Z,99.90
2022-09-14T05:59:17.951Z,99.90
2022-09-14T06:01:46.321Z,99.90
2022-09-14T06:04:14.538Z,99.90
2022-09-14T06:06:49.296Z,99.90
2022-09-14T06:09:33.252Z,99.90
2022-09-14T06:12:01.618Z,99.90
2022-09-14T06:14:29.865Z,99.90
2022-09-14T06:16:58.599Z,99.90
2022-09-14T06:19:26.796Z,99.90
2022-09-14T06:21:55.133Z,99.90
2022-09-14T06:24:23.123Z,99.90
2022-09-14T06:26:54.952Z,99.90
2022-09-14T06:29:22.950Z,99.90
2022-09-14T06:31:50.982Z,99.90
2022-09-14T06:34:19.153Z,99.90
2022-09-14T06:36:48.189Z,99.90
2022-09-14T06:39:18.393Z,99.90
2022-09-14T06:41:46.544Z,99.90
2022-09-14T06:44:21.670Z,99.90
2022-09-14T06:46:49.666Z,99.90
2022-09-14T06:49:20.714Z,99.90
2022-09-14T06:51:49.122Z,99.90
2022-09-14T06:54:18.704Z,99.90
2022-09-14T06:56:47.649Z,99.90
2022-09-14T06:59:17.293Z,99.90
2022-09-14T07:01:47.585Z,99.90
2022-09-14T07:04:16.108Z,99.90
2022-09-14T07:06:46.874Z,99.90
2022-09-14T07:09:15.708Z,99.90
2022-09-14T07:11:44.304Z,99.90
2022-09-14T07:14:13.380Z,99.90
2022-09-14T07:16:41.853Z,99.90
2022-09-14T07:19:13.655Z,99.90
2022-09-14T07:21:42.430Z,99.90
2022-09-14T07:24:11.593Z,99.90
2022-09-14T07:26:42.568Z,99.90
2022-09-14T07:29:13.788Z,99.90
2022-09-14T07:31:45.249Z,99.90
2022-09-14T07:34:15.215Z,99.90
2022-09-14T07:36:43.881Z,99.90
2022-09-14T07:39:14.378Z,99.90
2022-09-14T07:41:43.358Z,99.90
2022-09-14T07:44:14.912Z,99.90
2022-09-14T07:46:44.649Z,99.90
2022-09-14T07:49:15.725Z,99.90
2022-09-14T07:51:44.267Z,99.90
2022-09-14T07:54:14.623Z,99.90
2022-09-14T07:56:43.458Z,99.90
2022-09-14T07:59:34.508Z,99.90
2022-09-14T08:02:03.196Z,99.90
2022-09-14T08:04:32.487Z,99.90
2022-09-14T08:07:02.045Z,99.90
2022-09-14T08:09:30.561Z,99.90
2022-09-14T08:11:58.859Z,99.90
2022-09-14T08:14:27.161Z,99.90
2022-09-14T08:16:55.255Z,99.90
2022-09-14T08:19:23.378Z,99.90
2022-09-14T08:21:52.732Z,99.90
2022-09-14T08:24:22.388Z,99.90
2022-09-14T08:26:53.465Z,99.90
2022-09-14T08:29:21.585Z,99.90
2022-09-14T08:31:51.918Z,99.90
2022-09-14T08:34:21.079Z,99.90
2022-09-14T08:36:49.897Z,99.90
2022-09-14T08:39:19.504Z,99.90
2022-09-14T08:41:53.722Z,99.90
2022-09-14T08:44:26.442Z,99.90
2022-09-14T08:47:00.777Z,99.90
2022-09-14T08:49:47.548Z,99.90
2022-09-14T08:52:24.027Z,99.90
2022-09-14T08:54:56.788Z,99.90
2022-09-14T08:57:32.595Z,99.90
2022-09-14T09:00:09.584Z,99.90
2022-09-14T09:03:09.327Z,99.90
2022-09-14T09:05:43.564Z,99.90
2022-09-14T09:08:20.657Z,99.90
2022-09-14T09:10:53.330Z,99.90
2022-09-14T09:13:27.627Z,99.90
2022-09-14T09:16:01.277Z,99.90
2022-09-14T09:18:37.276Z,99.90
2022-09-14T09:21:09.344Z,99.90
2022-09-14T09:23:37.815Z,99.90
2022-09-14T09:26:12.994Z,99.90
2022-09-14T09:28:46.429Z,99.90
2022-09-14T09:31:15.829Z,99.90
2022-09-14T09:34:16.344Z,99.90
2022-09-14T09:36:47.978Z,99.90
2022-09-14T09:39:16.810Z,99.90
2022-09-14T09:41:49.626Z,99.90
2022-09-14T09:44:17.623Z,99.90
2022-09-14T09:46:49.369Z,99.90
2022-09-14T09:49:22.541Z,99.90
2022-09-14T09:51:52.361Z,99.90
2022-09-14T09:54:29.039Z,99.90
2022-09-14T09:57:00.683Z,99.90
2022-09-14T09:59:35.174Z,99.90
2022-09-14T10:02:23.018Z,99.90
2022-09-14T10:05:00.006Z,99.90
2022-09-14T10:07:29.366Z,99.90
2022-09-14T10:10:02.512Z,99.90
2022-09-14T10:12:32.437Z,99.90
2022-09-14T10:15:17.231Z,99.90
2022-09-14T10:18:07.940Z,99.10
2022-09-14T10:20:37.735Z,98.40
2022-09-14T10:23:23.720Z,96.90
2022-09-14T10:25:53.463Z,96.50
2022-09-14T10:28:29.026Z,92.90
2022-09-14T10:31:01.858Z,91.10
2022-09-14T10:33:30.689Z,89.60
2022-09-14T10:36:08.989Z,88.70
2022-09-14T10:38:43.125Z,87.50
2022-09-14T10:41:26.112Z,86.20
2022-09-14T10:44:32.995Z,86.20
2022-09-14T10:47:09.176Z,86.20
2022-09-14T10:49:50.920Z,86.60
2022-09-14T10:52:25.845Z,84.20
2022-09-14T10:55:20.850Z,82.50
2022-09-14T10:57:55.848Z,81.70
2022-09-14T11:00:25.716Z,81.40
2022-09-14T11:03:14.878Z,81.10
2022-09-14T11:05:51.757Z,82.10
2022-09-14T11:08:25.513Z,81.50
2022-09-14T11:11:11.424Z,80.10
2022-09-14T11:13:58.810Z,81.40
2022-09-14T11:16:55.896Z,81.60
2022-09-14T11:19:28.006Z,79.70
2022-09-14T11:22:04.471Z,77.60
2022-09-14T11:24:41.027Z,78.30
2022-09-14T11:27:15.546Z,77.60
2022-09-14T11:29:48.850Z,77.70
2022-09-14T11:32:22.887Z,77.50
2022-09-14T11:34:56.531Z,76.50
2022-09-14T11:37:30.737Z,76.70
2022-09-14T11:40:15.226Z,75.00
2022-09-14T11:42:50.201Z,76.20
2022-09-14T11:45:25.818Z,75.70
2022-09-14T11:48:00.425Z,75.20
2022-09-14T11:50:32.155Z,74.80
2022-09-14T11:53:13.404Z,74.70
2022-09-14T11:55:47.578Z,73.60
2022-09-14T11:58:20.741Z,74.50
2022-09-14T12:01:06.015Z,75.30
2022-09-14T12:03:55.254Z,73.70
2022-09-14T12:06:43.292Z,73.90
2022-09-14T12:09:40.178Z,74.90
2022-09-14T12:12:28.195Z,74.10
2022-09-14T12:15:01.299Z,74.20
2022-09-14T12:17:41.320Z,74.50
2022-09-14T12:20:43.335Z,74.00
2022-09-14T12:23:26.068Z,75.00
2022-09-14T12:26:02.220Z,74.30
2022-09-14T12:28:40.850Z,74.90
2022-09-14T12:31:13.865Z,75.00
2022-09-14T12:33:58.116Z,73.50
2022-09-14T12:37:00.332Z,73.80
2022-09-14T12:39:30.419Z,72.50
2022-09-14T12:42:05.270Z,71.30
2022-09-14T12:44:39.198Z,70.20
2022-09-14T12:47:50.143Z,69.50
2022-09-14T12:50:20.707Z,68.70
2022-09-14T12:53:17.197Z,68.70
2022-09-14T12:56:05.849Z,66.50
2022-09-14T12:58:59.906Z,69.10
2022-09-14T13:01:36.772Z,68.30
2022-09-14T13:04:06.613Z,69.50
2022-09-14T13:06:41.900Z,70.90
2022-09-14T13:09:21.445Z,69.40
2022-09-14T13:11:54.887Z,70.40
2022-09-14T13:14:26.998Z,71.00
2022-09-14T13:16:56.969Z,71.40
2022-09-14T13:19:27.120Z,70.40
2022-09-14T13:21:57.424Z,71.40
2022-09-14T13:24:32.510Z,71.10
2022-09-14T13:27:04.815Z,71.80
2022-09-14T13:29:33.499Z,72.60
2022-09-14T13:32:03.913Z,72.40
2022-09-14T13:34:36.048Z,71.30
2022-09-14T13:37:05.318Z,71.90
2022-09-14T13:39:37.615Z,72.20
2022-09-14T13:42:07.824Z,72.80
2022-09-14T13:44:42.195Z,72.80
2022-09-14T13:47:14.442Z,73.70
2022-09-14T13:49:45.132Z,73.70
2022-09-14T13:52:56.947Z,74.10
2022-09-14T13:55:24.443Z,73.80
2022-09-14T13:58:17.218Z,74.40
2022-09-14T14:00:58.221Z,75.80
2022-09-14T14:03:33.182Z,76.50
2022-09-14T14:06:05.926Z,76.90
2022-09-14T14:08:37.399Z,77.00
2022-09-14T14:11:16.101Z,77.30
2022-09-14T14:13:44.309Z,78.40
2022-09-14T14:16:18.274Z,79.70
2022-09-14T14:18:53.002Z,79.30
2022-09-14T14:21:32.286Z,79.90
2022-09-14T14:24:27.052Z,81.10
2022-09-14T14:26:59.013Z,99.90
2022-09-14T14:29:28.089Z,99.90
2022-09-14T14:31:57.771Z,99.90
2022-09-14T14:34:28.102Z,99.90
2022-09-14T14:36:56.871Z,99.90
2022-09-14T14:39:26.698Z,99.90
2022-09-14T14:41:56.281Z,99.90
2022-09-14T14:44:30.242Z,99.90
2022-09-14T14:46:58.718Z,99.90
2022-09-14T14:49:29.097Z,99.90
2022-09-14T14:51:57.286Z,99.90
2022-09-14T14:54:25.523Z,99.90
2022-09-14T14:56:55.894Z,99.90
2022-09-14T14:59:29.734Z,99.90
2022-09-14T15:01:58.628Z,99.90
2022-09-14T15:04:27.142Z,99.90
2022-09-14T15:06:57.833Z,99.90
2022-09-14T15:09:27.553Z,99.90
2022-09-14T15:11:56.036Z,99.90
2022-09-14T15:14:28.305Z,99.90
2022-09-14T15:17:00.154Z,99.90
2022-09-14T15:19:29.012Z,99.90
2022-09-14T15:22:01.373Z,99.90
2022-09-14T15:24:30.389Z,99.90
2022-09-14T15:26:59.784Z,99.90
2022-09-14T15:29:29.744Z,99.90
2022-09-14T15:32:00.267Z,99.90
2022-09-14T15:34:28.371Z,99.90
2022-09-14T15:36:57.480Z,99.90
2022-09-14T15:39:28.352Z,99.90
2022-09-14T15:41:57.157Z,99.90
2022-09-14T15:44:25.360Z,99.90
2022-09-14T15:46:56.297Z,99.90
2022-09-14T15:49:26.097Z,99.90
2022-09-14T15:51:56.892Z,99.90
2022-09-14T15:54:26.829Z,99.90
2022-09-14T15:56:56.777Z,99.90
2022-09-14T15:59:24.790Z,99.90
2022-09-14T16:01:54.647Z,99.90
2022-09-14T16:04:23.430Z,99.90
2022-09-14T16:06:51.943Z,99.90
2022-09-14T16:09:22.271Z,99.90
2022-09-14T16:11:50.666Z,99.90
2022-09-14T16:14:18.830Z,99.90
2022-09-14T16:16:46.977Z,99.90
2022-09-14T16:19:20.857Z,99.90
2022-09-14T16:21:53.448Z,99.90
2022-09-14T16:24:23.134Z,99.90
2022-09-14T16:26:59.982Z,99.90
2022-09-14T16:29:30.264Z,99.90
2022-09-14T16:32:00.625Z,99.90
2022-09-14T16:34:30.860Z,99.90
2022-09-14T16:37:01.188Z,99.90
2022-09-14T16:39:31.588Z,99.90
2022-09-14T16:41:59.981Z,99.90
2022-09-14T16:44:29.504Z,99.90
2022-09-14T16:47:00.151Z,99.90
2022-09-14T16:49:29.751Z,99.90
2022-09-14T16:52:00.676Z,99.90
2022-09-14T16:54:29.843Z,99.90
2022-09-14T16:56:59.337Z,99.90
2022-09-14T16:59:27.669Z,99.90
2022-09-14T17:01:55.897Z,99.90
2022-09-14T17:04:25.209Z,99.90
2022-09-14T17:06:56.060Z,99.90
2022-09-14T17:09:26.310Z,99.90
2022-09-14T17:11:56.414Z,99.90
2022-09-14T17:14:27.039Z,99.90
2022-09-14T17:16:55.199Z,99.90
2022-09-14T17:19:26.301Z,99.90
2022-09-14T17:21:56.013Z,99.90
2022-09-14T17:24:24.421Z,99.90
2022-09-14T17:26:55.500Z,99.90
2022-09-14T17:29:23.650Z,99.90
2022-09-14T17:31:51.797Z,99.90
2022-09-14T17:34:20.021Z,99.90
2022-09-14T17:36:50.671Z,99.90
2022-09-14T17:39:20.145Z,99.90
2022-09-14T17:41:48.353Z,99.90
2022-09-14T17:44:19.949Z,99.90
2022-09-14T17:46:52.738Z,99.90
2022-09-14T17:49:23.099Z,99.90
2022-09-14T17:51:51.719Z,99.90
2022-09-14T17:54:22.339Z,99.90
2022-09-14T17:56:50.456Z,99.90
2022-09-14T17:59:20.969Z,99.90
2022-09-14T18:01:49.290Z,99.90
2022-09-14T18:04:22.819Z,99.90
2022-09-14T18:06:50.978Z,99.90
2022-09-14T18:09:22.527Z,99.90
2022-09-14T18:11:51.486Z,99.90
2022-09-14T18:14:20.017Z,99.90
2022-09-14T18:16:49.122Z,99.90
2022-09-14T18:19:17.880Z,99.90
2022-09-14T18:21:51.633Z,99.90
2022-09-14T18:24:22.531Z,99.90
2022-09-14T18:26:50.816Z,99.90
2022-09-14T18:29:23.213Z,99.90
2022-09-14T18:31:51.573Z,99.90
2022-09-14T18:34:20.170Z,99.90
2022-09-14T18:36:48.588Z,99.90
2022-09-14T18:39:16.736Z,99.90
2022-09-14T18:41:53.774Z,99.90
2022-09-14T18:44:35.794Z,99.90
2022-09-14T18:47:29.800Z,99.90
2022-09-14T18:49:57.958Z,99.90
2022-09-14T18:52:28.540Z,99.90
2022-09-14T18:54:56.549Z,99.90
2022-09-14T18:57:26.555Z,99.90
2022-09-14T18:59:54.662Z,99.90
2022-09-14T19:02:25.213Z,99.90
2022-09-14T19:04:53.991Z,99.90
2022-09-14T19:07:25.439Z,99.90
2022-09-14T19:09:53.572Z,99.90
2022-09-14T19:12:22.015Z,99.90
2022-09-14T19:14:51.608Z,99.90
2022-09-14T19:17:19.883Z,99.90
2022-09-14T19:19:50.988Z,99.90
2022-09-14T19:22:19.173Z,99.90
2022-09-14T19:24:47.353Z,99.90
2022-09-14T19:27:15.548Z,99.90
2022-09-14T19:29:43.634Z,99.90
2022-09-14T19:32:13.785Z,99.90
2022-09-14T19:34:41.787Z,99.90
2022-09-14T19:37:12.414Z,99.90
2022-09-14T19:39:43.683Z,99.90
2022-09-14T19:42:12.050Z,99.90
2022-09-14T19:44:40.078Z,99.90
2022-09-14T19:47:08.285Z,99.90
2022-09-14T19:49:37.799Z,99.90
2022-09-14T19:52:06.065Z,99.90
2022-09-14T19:54:34.058Z,99.90
2022-09-14T19:57:02.277Z,99.90
2022-09-14T19:59:30.451Z,99.90
2022-09-14T20:01:58.628Z,99.90
2022-09-14T20:04:27.041Z,99.90
2022-09-14T20:06:56.421Z,99.90
2022-09-14T20:09:25.399Z,99.90
2022-09-14T20:11:54.143Z,99.90
2022-09-14T20:14:24.681Z,99.90
2022-09-14T20:16:55.088Z,99.90
2022-09-14T20:19:25.868Z,99.90
2022-09-14T20:21:54.757Z,99.90
2022-09-14T20:24:28.600Z,99.90
2022-09-14T20:26:58.891Z,99.90
2022-09-14T20:29:29.221Z,99.90
2022-09-14T20:31:58.049Z,99.90
2022-09-14T20:34:26.746Z,99.90
2022-09-14T20:36:55.471Z,99.90
2022-09-14T20:39:28.111Z,99.90
2022-09-14T20:41:56.177Z,99.90
2022-09-14T20:44:24.256Z,99.90
2022-09-14T20:46:52.645Z,99.90
2022-09-14T20:49:23.335Z,99.90
2022-09-14T20:51:54.287Z,99.90
2022-09-14T20:54:23.175Z,99.90
2022-09-14T20:56:53.050Z,99.90
2022-09-14T20:59:22.202Z,99.90
2022-09-14T21:01:52.563Z,99.90
2022-09-14T21:04:24.956Z,99.90
2022-09-14T21:06:54.609Z,99.90
2022-09-14T21:09:24.251Z,99.90
2022-09-14T21:11:54.383Z,99.90
2022-09-14T21:14:23.244Z,99.90
2022-09-14T21:16:55.313Z,99.90
2022-09-14T21:19:25.652Z,99.90
2022-09-14T21:21:54.124Z,99.90
2022-09-14T21:24:23.581Z,99.90
2022-09-14T21:26:53.106Z,99.90
2022-09-14T21:29:24.232Z,99.90
2022-09-14T21:31:52.923Z,99.90
2022-09-14T21:34:20.992Z,99.90
2022-09-14T21:36:50.740Z,99.90
2022-09-14T21:39:22.894Z,99.90
2022-09-14T21:41:57.561Z,99.90
2022-09-14T21:44:30.062Z,99.90
2022-09-14T21:47:05.573Z,99.90
2022-09-14T21:49:34.428Z,99.90
2022-09-14T21:52:02.801Z,99.90
2022-09-14T21:54:31.057Z,99.90
2022-09-14T21:57:00.439Z,99.90
2022-09-14T21:59:28.424Z,99.90
2022-09-14T22:01:56.602Z,99.90
2022-09-14T22:04:26.267Z,99.90
2022-09-14T22:06:54.989Z,99.90
2022-09-14T22:09:28.769Z,99.90
2022-09-14T22:12:00.754Z,99.90
2022-09-14T22:14:30.307Z,99.90
2022-09-14T22:16:58.452Z,99.90
2022-09-14T22:19:29.892Z,99.90
2022-09-14T22:21:58.150Z,99.90
2022-09-14T22:24:30.457Z,99.90
2022-09-14T22:27:03.823Z,99.90
2022-09-14T22:29:31.866Z,99.90
2022-09-14T22:32:00.008Z,99.90
2022-09-14T22:34:30.935Z,99.90
2022-09-14T22:36:58.997Z,99.90
2022-09-14T22:39:26.994Z,99.90
2022-09-14T22:41:55.401Z,99.90
2022-09-14T22:44:27.174Z,99.90
2022-09-14T22:46:55.224Z,99.90
2022-09-14T22:49:23.288Z,99.90
2022-09-14T22:51:51.310Z,99.90
2022-09-14T22:54:21.657Z,99.90
2022-09-14T22:56:49.653Z,99.90
2022-09-14T22:59:17.635Z,99.90
2022-09-14T23:01:47.022Z,99.90
2022-09-14T23:04:15.438Z,99.90
2022-09-14T23:06:45.291Z,99.90
2022-09-14T23:09:15.670Z,99.90
2022-09-14T23:11:44.689Z,99.90
2022-09-14T23:14:13.123Z,99.90
2022-09-14T23:16:54.268Z,99.90
2022-09-14T23:19:26.176Z,99.90
2022-09-14T23:22:05.409Z,99.90
2022-09-14T23:24:36.865Z,99.90
2022-09-14T23:27:12.930Z,99.90
2022-09-14T23:29:49.347Z,99.90
2022-09-14T23:32:37.044Z,99.90
2022-09-14T23:35:23.461Z,99.90
2022-09-14T23:38:03.921Z,99.90
2022-09-14T23:40:48.033Z,99.90
2022-09-14T23:43:36.507Z,99.90
2022-09-14T23:46:09.683Z,99.90
2022-09-14T23:48:45.596Z,99.90
2022-09-14T23:51:27.163Z,99.90
2022-09-14T23:53:59.700Z,99.90
2022-09-14T23:56:31.598Z,99.90
2022-09-14T23:59:14.204Z,99.90
